sensor_id;sensor_type;location;lat;lon;timestamp;P1;durP1;ratioP1;P2;durP2;ratioP2
14074;SDS011;12831;52.392;13.066;2023-05-07T00:00:45;13.13;;;10.05;;
14074;SDS011;12831;52.392;13.066;2023-05-07T00:03:10;14.25;;;9.27;;
14074;SDS011;12831;52.392;13.066;2023-05-07T00:05:37;13.18;;;10.00;;
14074;SDS011;12831;52.392;13.066;2023-05-07T00:08:03;15.60;;;9.82;;
14074;SDS011;12831;52.392;13.066;2023-05-07T00:10:29;12.20;;;9.15;;
14074;SDS011;12831;52.392;13.066;2023-05-07T00:12:55;19.17;;;9.98;;
14074;SDS011;12831;52.392;13.066;2023-05-07T00:15:21;16.77;;;9.98;;
14074;SDS011;12831;52.392;13.066;2023-05-07T00:17:46;12.52;;;9.43;;
14074;SDS011;12831;52.392;13.066;2023-05-07T00:20:12;12.60;;;8.77;;
14074;SDS011;12831;52.392;13.066;2023-05-07T00:22:38;11.70;;;8.45;;
14074;SDS011;12831;52.392;13.066;2023-05-07T00:25:04;14.13;;;9.00;;
14074;SDS011;12831;52.392;13.066;2023-05-07T00:27:30;17.08;;;9.88;;
14074;SDS011;12831;52.392;13.066;2023-05-07T00:29:56;11.52;;;7.20;;
14074;SDS011;12831;52.392;13.066;2023-05-07T00:32:22;11.30;;;8.45;;
14074;SDS011;12831;52.392;13.066;2023-05-07T00:34:48;12.48;;;8.23;;
14074;SDS011;12831;52.392;13.066;2023-05-07T00:37:14;9.70;;;7.80;;
14074;SDS011;12831;52.392;13.066;2023-05-07T00:39:40;11.00;;;7.63;;
14074;SDS011;12831;52.392;13.066;2023-05-07T00:42:06;15.70;;;7.85;;
14074;SDS011;12831;52.392;13.066;2023-05-07T00:44:31;11.88;;;8.18;;
14074;SDS011;12831;52.392;13.066;2023-05-07T00:46:57;9.52;;;7.22;;
14074;SDS011;12831;52.392;13.066;2023-05-07T00:49:27;14.02;;;8.70;;
14074;SDS011;12831;52.392;13.066;2023-05-07T00:51:58;13.35;;;8.15;;
14074;SDS011;12831;52.392;13.066;2023-05-07T00:54:26;9.35;;;7.18;;
14074;SDS011;12831;52.392;13.066;2023-05-07T00:56:53;10.73;;;7.32;;
14074;SDS011;12831;52.392;13.066;2023-05-07T00:59:19;15.25;;;8.25;;
14074;SDS011;12831;52.392;13.066;2023-05-07T01:01:45;14.02;;;8.27;;
14074;SDS011;12831;52.392;13.066;2023-05-07T01:04:11;9.38;;;7.07;;
14074;SDS011;12831;52.392;13.066;2023-05-07T01:06:37;11.27;;;7.50;;
14074;SDS011;12831;52.392;13.066;2023-05-07T01:09:04;10.70;;;7.40;;
14074;SDS011;12831;52.392;13.066;2023-05-07T01:11:30;11.73;;;8.50;;
14074;SDS011;12831;52.392;13.066;2023-05-07T01:13:56;13.00;;;7.53;;
14074;SDS011;12831;52.392;13.066;2023-05-07T01:16:23;11.48;;;7.63;;
14074;SDS011;12831;52.392;13.066;2023-05-07T01:18:49;11.10;;;7.15;;
14074;SDS011;12831;52.392;13.066;2023-05-07T01:21:15;12.77;;;7.95;;
14074;SDS011;12831;52.392;13.066;2023-05-07T01:23:42;10.57;;;6.90;;
14074;SDS011;12831;52.392;13.066;2023-05-07T01:26:07;10.82;;;7.65;;
14074;SDS011;12831;52.392;13.066;2023-05-07T01:28:33;8.02;;;6.30;;
14074;SDS011;12831;52.392;13.066;2023-05-07T01:31:00;10.07;;;7.88;;
14074;SDS011;12831;52.392;13.066;2023-05-07T01:33:27;8.57;;;6.93;;
14074;SDS011;12831;52.392;13.066;2023-05-07T01:35:55;10.45;;;7.63;;
14074;SDS011;12831;52.392;13.066;2023-05-07T01:38:21;12.07;;;7.47;;
14074;SDS011;12831;52.392;13.066;2023-05-07T01:40:47;15.82;;;7.95;;
14074;SDS011;12831;52.392;13.066;2023-05-07T01:43:13;17.55;;;7.88;;
14074;SDS011;12831;52.392;13.066;2023-05-07T01:45:39;11.43;;;7.80;;
14074;SDS011;12831;52.392;13.066;2023-05-07T01:48:05;12.07;;;6.95;;
14074;SDS011;12831;52.392;13.066;2023-05-07T01:50:32;12.70;;;6.68;;
14074;SDS011;12831;52.392;13.066;2023-05-07T01:52:58;9.55;;;6.60;;
14074;SDS011;12831;52.392;13.066;2023-05-07T01:55:23;8.48;;;6.22;;
14074;SDS011;12831;52.392;13.066;2023-05-07T01:57:49;10.18;;;6.25;;
14074;SDS011;12831;52.392;13.066;2023-05-07T02:00:15;10.27;;;6.40;;
14074;SDS011;12831;52.392;13.066;2023-05-07T02:02:41;11.88;;;6.45;;
14074;SDS011;12831;52.392;13.066;2023-05-07T02:05:07;8.93;;;6.40;;
14074;SDS011;12831;52.392;13.066;2023-05-07T02:07:33;10.80;;;6.47;;
14074;SDS011;12831;52.392;13.066;2023-05-07T02:09:59;12.25;;;6.72;;
14074;SDS011;12831;52.392;13.066;2023-05-07T02:12:24;7.88;;;5.70;;
14074;SDS011;12831;52.392;13.066;2023-05-07T02:14:50;8.90;;;5.75;;
14074;SDS011;12831;52.392;13.066;2023-05-07T02:17:16;8.23;;;6.50;;
14074;SDS011;12831;52.392;13.066;2023-05-07T02:19:42;10.73;;;6.53;;
14074;SDS011;12831;52.392;13.066;2023-05-07T02:22:09;8.05;;;6.55;;
14074;SDS011;12831;52.392;13.066;2023-05-07T02:24:34;7.28;;;6.15;;
14074;SDS011;12831;52.392;13.066;2023-05-07T02:27:01;9.88;;;5.97;;
14074;SDS011;12831;52.392;13.066;2023-05-07T02:29:27;9.52;;;6.70;;
14074;SDS011;12831;52.392;13.066;2023-05-07T02:31:53;15.40;;;6.97;;
14074;SDS011;12831;52.392;13.066;2023-05-07T02:34:19;9.75;;;6.32;;
14074;SDS011;12831;52.392;13.066;2023-05-07T02:36:45;9.52;;;6.80;;
14074;SDS011;12831;52.392;13.066;2023-05-07T02:39:11;9.20;;;6.10;;
14074;SDS011;12831;52.392;13.066;2023-05-07T02:41:37;9.95;;;6.00;;
14074;SDS011;12831;52.392;13.066;2023-05-07T02:44:03;10.43;;;5.75;;
14074;SDS011;12831;52.392;13.066;2023-05-07T02:46:29;7.93;;;5.70;;
14074;SDS011;12831;52.392;13.066;2023-05-07T02:48:55;7.03;;;4.80;;
14074;SDS011;12831;52.392;13.066;2023-05-07T02:51:21;11.40;;;6.75;;
14074;SDS011;12831;52.392;13.066;2023-05-07T02:53:51;10.23;;;6.13;;
14074;SDS011;12831;52.392;13.066;2023-05-07T02:56:16;8.48;;;5.55;;
14074;SDS011;12831;52.392;13.066;2023-05-07T02:58:42;8.75;;;6.28;;
14074;SDS011;12831;52.392;13.066;2023-05-07T03:01:08;8.25;;;5.68;;
14074;SDS011;12831;52.392;13.066;2023-05-07T03:03:34;10.45;;;5.63;;
14074;SDS011;12831;52.392;13.066;2023-05-07T03:06:00;7.93;;;5.57;;
14074;SDS011;12831;52.392;13.066;2023-05-07T03:08:26;8.10;;;5.88;;
14074;SDS011;12831;52.392;13.066;2023-05-07T03:10:52;7.82;;;5.43;;
14074;SDS011;12831;52.392;13.066;2023-05-07T03:13:17;7.55;;;5.13;;
14074;SDS011;12831;52.392;13.066;2023-05-07T03:15:43;9.90;;;7.18;;
14074;SDS011;12831;52.392;13.066;2023-05-07T03:18:09;11.88;;;6.80;;
14074;SDS011;12831;52.392;13.066;2023-05-07T03:20:36;8.40;;;6.45;;
14074;SDS011;12831;52.392;13.066;2023-05-07T03:23:02;7.28;;;5.47;;
14074;SDS011;12831;52.392;13.066;2023-05-07T03:25:28;7.80;;;5.72;;
14074;SDS011;12831;52.392;13.066;2023-05-07T03:27:55;8.32;;;5.32;;
14074;SDS011;12831;52.392;13.066;2023-05-07T03:30:21;10.25;;;5.95;;
14074;SDS011;12831;52.392;13.066;2023-05-07T03:32:47;9.38;;;6.28;;
14074;SDS011;12831;52.392;13.066;2023-05-07T03:35:13;10.57;;;6.95;;
14074;SDS011;12831;52.392;13.066;2023-05-07T03:37:39;10.05;;;6.70;;
14074;SDS011;12831;52.392;13.066;2023-05-07T03:40:05;10.63;;;6.88;;
14074;SDS011;12831;52.392;13.066;2023-05-07T03:42:31;10.75;;;7.05;;
14074;SDS011;12831;52.392;13.066;2023-05-07T03:44:57;9.57;;;6.72;;
14074;SDS011;12831;52.392;13.066;2023-05-07T03:47:23;9.77;;;6.18;;
14074;SDS011;12831;52.392;13.066;2023-05-07T03:49:48;10.48;;;6.22;;
14074;SDS011;12831;52.392;13.066;2023-05-07T03:52:15;7.72;;;6.32;;
14074;SDS011;12831;52.392;13.066;2023-05-07T03:54:41;11.23;;;6.15;;
14074;SDS011;12831;52.392;13.066;2023-05-07T03:57:07;9.85;;;5.95;;
14074;SDS011;12831;52.392;13.066;2023-05-07T03:59:33;10.13;;;6.05;;
14074;SDS011;12831;52.392;13.066;2023-05-07T04:01:59;10.40;;;6.45;;
14074;SDS011;12831;52.392;13.066;2023-05-07T04:04:28;8.70;;;6.28;;
14074;SDS011;12831;52.392;13.066;2023-05-07T04:06:58;9.48;;;6.82;;
14074;SDS011;12831;52.392;13.066;2023-05-07T04:09:25;8.70;;;6.28;;
14074;SDS011;12831;52.392;13.066;2023-05-07T04:11:51;10.25;;;6.38;;
14074;SDS011;12831;52.392;13.066;2023-05-07T04:14:17;8.50;;;6.10;;
14074;SDS011;12831;52.392;13.066;2023-05-07T04:16:43;9.10;;;6.15;;
14074;SDS011;12831;52.392;13.066;2023-05-07T04:19:09;8.65;;;6.32;;
14074;SDS011;12831;52.392;13.066;2023-05-07T04:21:35;8.68;;;6.18;;
14074;SDS011;12831;52.392;13.066;2023-05-07T04:24:02;9.98;;;6.13;;
14074;SDS011;12831;52.392;13.066;2023-05-07T04:26:29;7.18;;;5.30;;
14074;SDS011;12831;52.392;13.066;2023-05-07T04:28:55;10.15;;;6.18;;
14074;SDS011;12831;52.392;13.066;2023-05-07T04:31:21;9.63;;;5.95;;
14074;SDS011;12831;52.392;13.066;2023-05-07T04:33:48;12.27;;;6.40;;
14074;SDS011;12831;52.392;13.066;2023-05-07T04:36:14;8.60;;;6.10;;
14074;SDS011;12831;52.392;13.066;2023-05-07T04:38:40;8.27;;;5.57;;
14074;SDS011;12831;52.392;13.066;2023-05-07T04:41:06;9.80;;;7.03;;
14074;SDS011;12831;52.392;13.066;2023-05-07T04:43:32;8.07;;;6.32;;
14074;SDS011;12831;52.392;13.066;2023-05-07T04:45:58;11.25;;;7.05;;
14074;SDS011;12831;52.392;13.066;2023-05-07T04:48:25;10.88;;;7.22;;
14074;SDS011;12831;52.392;13.066;2023-05-07T04:50:52;9.18;;;6.57;;
14074;SDS011;12831;52.392;13.066;2023-05-07T04:53:18;11.48;;;7.00;;
14074;SDS011;12831;52.392;13.066;2023-05-07T04:55:44;8.00;;;5.63;;
14074;SDS011;12831;52.392;13.066;2023-05-07T04:58:11;9.13;;;6.05;;
14074;SDS011;12831;52.392;13.066;2023-05-07T05:00:37;7.82;;;5.07;;
14074;SDS011;12831;52.392;13.066;2023-05-07T05:03:06;11.73;;;6.00;;
14074;SDS011;12831;52.392;13.066;2023-05-07T05:05:32;7.63;;;5.68;;
14074;SDS011;12831;52.392;13.066;2023-05-07T05:07:59;8.48;;;6.38;;
14074;SDS011;12831;52.392;13.066;2023-05-07T05:10:24;8.07;;;5.75;;
14074;SDS011;12831;52.392;13.066;2023-05-07T05:12:51;8.00;;;6.25;;
14074;SDS011;12831;52.392;13.066;2023-05-07T05:15:17;7.95;;;5.57;;
14074;SDS011;12831;52.392;13.066;2023-05-07T05:17:43;9.40;;;5.65;;
14074;SDS011;12831;52.392;13.066;2023-05-07T05:20:09;9.60;;;6.28;;
14074;SDS011;12831;52.392;13.066;2023-05-07T05:22:37;7.75;;;5.60;;
14074;SDS011;12831;52.392;13.066;2023-05-07T05:25:03;8.98;;;5.57;;
14074;SDS011;12831;52.392;13.066;2023-05-07T05:27:29;10.13;;;6.60;;
14074;SDS011;12831;52.392;13.066;2023-05-07T05:32:59;5.97;;;4.68;;
14074;SDS011;12831;52.392;13.066;2023-05-07T05:35:27;7.20;;;5.68;;
14074;SDS011;12831;52.392;13.066;2023-05-07T05:37:53;7.80;;;5.50;;
14074;SDS011;12831;52.392;13.066;2023-05-07T05:40:19;8.75;;;5.53;;
14074;SDS011;12831;52.392;13.066;2023-05-07T05:42:46;7.18;;;5.55;;
14074;SDS011;12831;52.392;13.066;2023-05-07T05:45:12;6.78;;;5.22;;
14074;SDS011;12831;52.392;13.066;2023-05-07T05:47:39;7.35;;;5.78;;
14074;SDS011;12831;52.392;13.066;2023-05-07T05:50:05;5.97;;;4.93;;
14074;SDS011;12831;52.392;13.066;2023-05-07T05:52:32;8.85;;;5.53;;
14074;SDS011;12831;52.392;13.066;2023-05-07T05:54:58;7.28;;;5.57;;
14074;SDS011;12831;52.392;13.066;2023-05-07T05:57:23;6.30;;;4.93;;
14074;SDS011;12831;52.392;13.066;2023-05-07T05:59:55;8.85;;;5.28;;
14074;SDS011;12831;52.392;13.066;2023-05-07T06:02:21;9.95;;;5.30;;
14074;SDS011;12831;52.392;13.066;2023-05-07T06:04:47;8.48;;;5.57;;
14074;SDS011;12831;52.392;13.066;2023-05-07T06:07:13;7.07;;;4.70;;
14074;SDS011;12831;52.392;13.066;2023-05-07T06:09:39;11.57;;;5.18;;
14074;SDS011;12831;52.392;13.066;2023-05-07T06:12:05;6.35;;;4.60;;
14074;SDS011;12831;52.392;13.066;2023-05-07T06:14:31;6.50;;;4.90;;
14074;SDS011;12831;52.392;13.066;2023-05-07T06:16:57;7.20;;;4.70;;
14074;SDS011;12831;52.392;13.066;2023-05-07T06:19:23;7.85;;;4.28;;
14074;SDS011;12831;52.392;13.066;2023-05-07T06:21:50;6.00;;;4.28;;
14074;SDS011;12831;52.392;13.066;2023-05-07T06:24:17;5.25;;;3.75;;
14074;SDS011;12831;52.392;13.066;2023-05-07T06:26:43;6.40;;;4.45;;
14074;SDS011;12831;52.392;13.066;2023-05-07T06:29:23;5.40;;;3.67;;
14074;SDS011;12831;52.392;13.066;2023-05-07T06:31:49;5.47;;;4.00;;
14074;SDS011;12831;52.392;13.066;2023-05-07T06:34:22;5.05;;;3.63;;
14074;SDS011;12831;52.392;13.066;2023-05-07T06:36:48;7.28;;;3.83;;
14074;SDS011;12831;52.392;13.066;2023-05-07T06:39:15;5.78;;;3.75;;
14074;SDS011;12831;52.392;13.066;2023-05-07T06:41:41;6.45;;;4.28;;
14074;SDS011;12831;52.392;13.066;2023-05-07T06:44:07;5.93;;;3.58;;
14074;SDS011;12831;52.392;13.066;2023-05-07T06:46:35;5.90;;;3.88;;
14074;SDS011;12831;52.392;13.066;2023-05-07T06:49:01;5.45;;;3.78;;
14074;SDS011;12831;52.392;13.066;2023-05-07T06:51:29;6.75;;;4.32;;
14074;SDS011;12831;52.392;13.066;2023-05-07T06:53:58;3.97;;;2.97;;
14074;SDS011;12831;52.392;13.066;2023-05-07T06:59:26;6.70;;;3.63;;
14074;SDS011;12831;52.392;13.066;2023-05-07T07:01:53;4.95;;;3.20;;
14074;SDS011;12831;52.392;13.066;2023-05-07T07:06:54;6.82;;;4.00;;
14074;SDS011;12831;52.392;13.066;2023-05-07T07:09:20;6.65;;;3.90;;
14074;SDS011;12831;52.392;13.066;2023-05-07T07:11:49;4.88;;;3.60;;
14074;SDS011;12831;52.392;13.066;2023-05-07T07:14:15;4.68;;;3.45;;
14074;SDS011;12831;52.392;13.066;2023-05-07T07:16:56;6.28;;;4.15;;
14074;SDS011;12831;52.392;13.066;2023-05-07T07:19:27;5.00;;;3.13;;
14074;SDS011;12831;52.392;13.066;2023-05-07T07:21:55;4.80;;;2.92;;
14074;SDS011;12831;52.392;13.066;2023-05-07T07:24:22;6.68;;;2.75;;
14074;SDS011;12831;52.392;13.066;2023-05-07T07:26:48;5.32;;;3.92;;
14074;SDS011;12831;52.392;13.066;2023-05-07T07:29:22;5.20;;;2.60;;
14074;SDS011;12831;52.392;13.066;2023-05-07T07:31:48;6.55;;;3.58;;
14074;SDS011;12831;52.392;13.066;2023-05-07T07:34:16;5.20;;;2.75;;
14074;SDS011;12831;52.392;13.066;2023-05-07T07:36:42;6.38;;;2.90;;
14074;SDS011;12831;52.392;13.066;2023-05-07T07:39:13;4.07;;;3.03;;
14074;SDS011;12831;52.392;13.066;2023-05-07T07:41:40;7.93;;;3.08;;
14074;SDS011;12831;52.392;13.066;2023-05-07T07:44:07;6.05;;;3.33;;
14074;SDS011;12831;52.392;13.066;2023-05-07T07:46:38;5.57;;;3.70;;
14074;SDS011;12831;52.392;13.066;2023-05-07T07:49:05;6.30;;;3.50;;
14074;SDS011;12831;52.392;13.066;2023-05-07T07:51:45;4.75;;;3.22;;
14074;SDS011;12831;52.392;13.066;2023-05-07T07:54:11;5.60;;;2.90;;
14074;SDS011;12831;52.392;13.066;2023-05-07T07:56:39;4.38;;;3.42;;
14074;SDS011;12831;52.392;13.066;2023-05-07T07:59:17;5.10;;;3.40;;
14074;SDS011;12831;52.392;13.066;2023-05-07T08:01:46;5.63;;;2.88;;
14074;SDS011;12831;52.392;13.066;2023-05-07T08:04:18;7.03;;;3.47;;
14074;SDS011;12831;52.392;13.066;2023-05-07T08:06:45;4.60;;;2.38;;
14074;SDS011;12831;52.392;13.066;2023-05-07T08:09:26;5.53;;;3.05;;
14074;SDS011;12831;52.392;13.066;2023-05-07T08:11:54;4.38;;;2.60;;
14074;SDS011;12831;52.392;13.066;2023-05-07T08:14:20;4.40;;;3.05;;
14074;SDS011;12831;52.392;13.066;2023-05-07T08:16:47;5.05;;;2.72;;
14074;SDS011;12831;52.392;13.066;2023-05-07T08:19:14;4.93;;;2.90;;
14074;SDS011;12831;52.392;13.066;2023-05-07T08:21:40;4.30;;;2.53;;
14074;SDS011;12831;52.392;13.066;2023-05-07T08:24:07;5.07;;;2.72;;
14074;SDS011;12831;52.392;13.066;2023-05-07T08:26:33;5.35;;;2.90;;
14074;SDS011;12831;52.392;13.066;2023-05-07T08:29:11;5.65;;;2.42;;
14074;SDS011;12831;52.392;13.066;2023-05-07T08:31:38;3.47;;;2.60;;
14074;SDS011;12831;52.392;13.066;2023-05-07T08:34:20;5.55;;;3.30;;
14074;SDS011;12831;52.392;13.066;2023-05-07T08:36:47;4.90;;;2.85;;
14074;SDS011;12831;52.392;13.066;2023-05-07T08:39:18;4.85;;;2.63;;
14074;SDS011;12831;52.392;13.066;2023-05-07T08:41:45;3.67;;;2.58;;
14074;SDS011;12831;52.392;13.066;2023-05-07T08:44:14;3.83;;;2.08;;
14074;SDS011;12831;52.392;13.066;2023-05-07T08:46:42;5.50;;;2.50;;
14074;SDS011;12831;52.392;13.066;2023-05-07T08:49:12;5.07;;;3.20;;
14074;SDS011;12831;52.392;13.066;2023-05-07T08:51:40;4.03;;;2.35;;
14074;SDS011;12831;52.392;13.066;2023-05-07T08:54:09;3.93;;;2.27;;
14074;SDS011;12831;52.392;13.066;2023-05-07T08:56:37;4.97;;;2.22;;
14074;SDS011;12831;52.392;13.066;2023-05-07T09:02:25;2.65;;;1.67;;
14074;SDS011;12831;52.392;13.066;2023-05-07T09:04:51;3.33;;;2.00;;
14074;SDS011;12831;52.392;13.066;2023-05-07T09:07:21;3.17;;;1.77;;
14074;SDS011;12831;52.392;13.066;2023-05-07T09:09:48;4.18;;;2.30;;
14074;SDS011;12831;52.392;13.066;2023-05-07T09:12:18;2.45;;;1.67;;
14074;SDS011;12831;52.392;13.066;2023-05-07T09:14:48;5.88;;;2.15;;
14074;SDS011;12831;52.392;13.066;2023-05-07T09:17:17;3.42;;;2.25;;
14074;SDS011;12831;52.392;13.066;2023-05-07T09:19:45;3.03;;;1.90;;
14074;SDS011;12831;52.392;13.066;2023-05-07T09:22:14;3.25;;;1.95;;
14074;SDS011;12831;52.392;13.066;2023-05-07T09:24:47;3.38;;;2.13;;
14074;SDS011;12831;52.392;13.066;2023-05-07T09:27:17;6.53;;;2.85;;
14074;SDS011;12831;52.392;13.066;2023-05-07T09:29:56;5.50;;;2.03;;
14074;SDS011;12831;52.392;13.066;2023-05-07T09:32:24;3.70;;;1.83;;
14074;SDS011;12831;52.392;13.066;2023-05-07T09:34:53;4.13;;;2.10;;
14074;SDS011;12831;52.392;13.066;2023-05-07T09:37:20;3.45;;;2.25;;
14074;SDS011;12831;52.392;13.066;2023-05-07T09:39:48;3.03;;;1.90;;
14074;SDS011;12831;52.392;13.066;2023-05-07T09:42:23;3.28;;;2.10;;
14074;SDS011;12831;52.392;13.066;2023-05-07T09:44:56;3.92;;;2.00;;
14074;SDS011;12831;52.392;13.066;2023-05-07T09:47:36;3.92;;;1.88;;
14074;SDS011;12831;52.392;13.066;2023-05-07T09:50:06;4.20;;;2.08;;
14074;SDS011;12831;52.392;13.066;2023-05-07T09:52:35;2.53;;;1.35;;
14074;SDS011;12831;52.392;13.066;2023-05-07T09:55:06;3.50;;;2.08;;
14074;SDS011;12831;52.392;13.066;2023-05-07T09:57:51;3.60;;;1.83;;
14074;SDS011;12831;52.392;13.066;2023-05-07T10:03:56;2.25;;;1.38;;
14074;SDS011;12831;52.392;13.066;2023-05-07T10:06:25;3.05;;;1.75;;
14074;SDS011;12831;52.392;13.066;2023-05-07T10:09:06;4.82;;;1.65;;
14074;SDS011;12831;52.392;13.066;2023-05-07T10:11:34;3.08;;;1.98;;
14074;SDS011;12831;52.392;13.066;2023-05-07T10:14:06;3.25;;;1.63;;
14074;SDS011;12831;52.392;13.066;2023-05-07T10:16:34;2.42;;;1.40;;
14074;SDS011;12831;52.392;13.066;2023-05-07T10:19:03;3.00;;;1.73;;
14074;SDS011;12831;52.392;13.066;2023-05-07T10:21:38;2.30;;;1.55;;
14074;SDS011;12831;52.392;13.066;2023-05-07T10:24:10;3.22;;;1.13;;
14074;SDS011;12831;52.392;13.066;2023-05-07T10:26:50;2.95;;;1.48;;
14074;SDS011;12831;52.392;13.066;2023-05-07T10:29:37;2.83;;;1.92;;
14074;SDS011;12831;52.392;13.066;2023-05-07T10:32:11;2.95;;;1.50;;
14074;SDS011;12831;52.392;13.066;2023-05-07T10:34:42;2.70;;;1.65;;
14074;SDS011;12831;52.392;13.066;2023-05-07T10:37:11;4.43;;;1.73;;
14074;SDS011;12831;52.392;13.066;2023-05-07T10:39:52;3.50;;;1.60;;
14074;SDS011;12831;52.392;13.066;2023-05-07T10:42:21;2.75;;;1.70;;
14074;SDS011;12831;52.392;13.066;2023-05-07T10:44:48;2.30;;;1.30;;
14074;SDS011;12831;52.392;13.066;2023-05-07T10:47:15;2.95;;;1.23;;
14074;SDS011;12831;52.392;13.066;2023-05-07T10:52:18;3.78;;;1.38;;
14074;SDS011;12831;52.392;13.066;2023-05-07T10:54:45;4.90;;;1.10;;
14074;SDS011;12831;52.392;13.066;2023-05-07T11:00:03;4.50;;;1.60;;
14074;SDS011;12831;52.392;13.066;2023-05-07T11:03:06;3.08;;;1.52;;
14074;SDS011;12831;52.392;13.066;2023-05-07T11:05:34;2.22;;;1.40;;
14074;SDS011;12831;52.392;13.066;2023-05-07T11:08:05;3.40;;;2.17;;
14074;SDS011;12831;52.392;13.066;2023-05-07T11:10:52;1.92;;;1.35;;
14074;SDS011;12831;52.392;13.066;2023-05-07T11:16:24;3.95;;;1.65;;
14074;SDS011;12831;52.392;13.066;2023-05-07T11:18:55;2.90;;;1.83;;
14074;SDS011;12831;52.392;13.066;2023-05-07T11:24:09;2.58;;;1.50;;
14074;SDS011;12831;52.392;13.066;2023-05-07T11:26:44;5.72;;;1.58;;
14074;SDS011;12831;52.392;13.066;2023-05-07T11:32:35;3.15;;;1.85;;
14074;SDS011;12831;52.392;13.066;2023-05-07T11:35:01;1.67;;;1.23;;
14074;SDS011;12831;52.392;13.066;2023-05-07T11:37:35;2.50;;;1.45;;
14074;SDS011;12831;52.392;13.066;2023-05-07T11:40:07;2.50;;;1.20;;
14074;SDS011;12831;52.392;13.066;2023-05-07T11:42:49;3.05;;;1.00;;
14074;SDS011;12831;52.392;13.066;2023-05-07T11:45:22;3.72;;;1.23;;
14074;SDS011;12831;52.392;13.066;2023-05-07T11:47:52;2.25;;;1.15;;
14074;SDS011;12831;52.392;13.066;2023-05-07T11:50:20;3.50;;;1.13;;
14074;SDS011;12831;52.392;13.066;2023-05-07T11:53:08;2.42;;;1.42;;
14074;SDS011;12831;52.392;13.066;2023-05-07T11:55:39;3.88;;;1.33;;
14074;SDS011;12831;52.392;13.066;2023-05-07T11:58:06;2.50;;;1.60;;
14074;SDS011;12831;52.392;13.066;2023-05-07T12:00:36;2.47;;;1.23;;
14074;SDS011;12831;52.392;13.066;2023-05-07T12:03:03;2.67;;;1.15;;
14074;SDS011;12831;52.392;13.066;2023-05-07T12:05:30;4.55;;;1.45;;
14074;SDS011;12831;52.392;13.066;2023-05-07T12:10:28;2.58;;;1.60;;
14074;SDS011;12831;52.392;13.066;2023-05-07T12:12:56;3.67;;;1.08;;
14074;SDS011;12831;52.392;13.066;2023-05-07T12:15:22;3.08;;;1.67;;
14074;SDS011;12831;52.392;13.066;2023-05-07T12:17:50;4.78;;;1.60;;
14074;SDS011;12831;52.392;13.066;2023-05-07T12:20:23;2.40;;;1.10;;
14074;SDS011;12831;52.392;13.066;2023-05-07T12:22:59;3.40;;;1.70;;
14074;SDS011;12831;52.392;13.066;2023-05-07T12:25:29;2.67;;;1.30;;
14074;SDS011;12831;52.392;13.066;2023-05-07T12:27:56;3.45;;;2.05;;
14074;SDS011;12831;52.392;13.066;2023-05-07T12:30:29;2.05;;;0.80;;
14074;SDS011;12831;52.392;13.066;2023-05-07T12:32:56;2.40;;;1.05;;
14074;SDS011;12831;52.392;13.066;2023-05-07T12:35:27;3.50;;;1.33;;
14074;SDS011;12831;52.392;13.066;2023-05-07T12:37:56;4.32;;;1.92;;
14074;SDS011;12831;52.392;13.066;2023-05-07T12:40:37;1.80;;;1.27;;
14074;SDS011;12831;52.392;13.066;2023-05-07T12:43:23;1.98;;;1.25;;
14074;SDS011;12831;52.392;13.066;2023-05-07T12:46:06;2.40;;;1.20;;
14074;SDS011;12831;52.392;13.066;2023-05-07T12:51:04;2.47;;;1.33;;
14074;SDS011;12831;52.392;13.066;2023-05-07T12:53:32;3.88;;;1.50;;
14074;SDS011;12831;52.392;13.066;2023-05-07T12:56:03;3.85;;;1.60;;
14074;SDS011;12831;52.392;13.066;2023-05-07T13:02:05;2.65;;;0.88;;
14074;SDS011;12831;52.392;13.066;2023-05-07T13:04:33;3.53;;;1.30;;
14074;SDS011;12831;52.392;13.066;2023-05-07T13:06:59;2.78;;;1.00;;
14074;SDS011;12831;52.392;13.066;2023-05-07T13:09:27;3.17;;;1.50;;
14074;SDS011;12831;52.392;13.066;2023-05-07T13:11:55;5.25;;;1.73;;
14074;SDS011;12831;52.392;13.066;2023-05-07T13:14:31;2.50;;;1.60;;
14074;SDS011;12831;52.392;13.066;2023-05-07T13:16:58;4.68;;;1.80;;
14074;SDS011;12831;52.392;13.066;2023-05-07T13:19:25;3.13;;;1.75;;
14074;SDS011;12831;52.392;13.066;2023-05-07T13:21:57;2.83;;;1.50;;
14074;SDS011;12831;52.392;13.066;2023-05-07T13:24:24;3.10;;;1.60;;
14074;SDS011;12831;52.392;13.066;2023-05-07T13:26:53;3.45;;;1.98;;
14074;SDS011;12831;52.392;13.066;2023-05-07T13:29:20;1.85;;;1.10;;
14074;SDS011;12831;52.392;13.066;2023-05-07T13:31:54;1.73;;;1.10;;
14074;SDS011;12831;52.392;13.066;2023-05-07T13:34:23;3.97;;;1.67;;
14074;SDS011;12831;52.392;13.066;2023-05-07T13:36:49;2.88;;;1.40;;
14074;SDS011;12831;52.392;13.066;2023-05-07T13:39:17;2.65;;;2.00;;
14074;SDS011;12831;52.392;13.066;2023-05-07T13:41:44;3.05;;;1.30;;
14074;SDS011;12831;52.392;13.066;2023-05-07T13:44:10;2.67;;;1.40;;
14074;SDS011;12831;52.392;13.066;2023-05-07T13:46:40;1.27;;;0.77;;
14074;SDS011;12831;52.392;13.066;2023-05-07T13:49:22;2.70;;;1.00;;
14074;SDS011;12831;52.392;13.066;2023-05-07T13:51:52;3.53;;;1.55;;
14074;SDS011;12831;52.392;13.066;2023-05-07T13:54:18;3.53;;;1.00;;
14074;SDS011;12831;52.392;13.066;2023-05-07T13:56:46;1.92;;;0.93;;
14074;SDS011;12831;52.392;13.066;2023-05-07T13:59:20;4.43;;;1.25;;
14074;SDS011;12831;52.392;13.066;2023-05-07T14:01:47;2.78;;;1.02;;
14074;SDS011;12831;52.392;13.066;2023-05-07T14:04:13;2.97;;;1.10;;
14074;SDS011;12831;52.392;13.066;2023-05-07T14:06:40;2.05;;;1.10;;
14074;SDS011;12831;52.392;13.066;2023-05-07T14:09:22;1.95;;;1.15;;
14074;SDS011;12831;52.392;13.066;2023-05-07T14:11:49;1.98;;;1.05;;
14074;SDS011;12831;52.392;13.066;2023-05-07T14:14:31;2.65;;;1.50;;
14074;SDS011;12831;52.392;13.066;2023-05-07T14:16:59;5.00;;;1.08;;
14074;SDS011;12831;52.392;13.066;2023-05-07T14:19:25;1.77;;;1.13;;
14074;SDS011;12831;52.392;13.066;2023-05-07T14:24:33;2.38;;;1.27;;
14074;SDS011;12831;52.392;13.066;2023-05-07T14:27:04;4.63;;;1.27;;
14074;SDS011;12831;52.392;13.066;2023-05-07T14:29:54;2.25;;;1.20;;
14074;SDS011;12831;52.392;13.066;2023-05-07T14:32:25;2.08;;;1.35;;
14074;SDS011;12831;52.392;13.066;2023-05-07T14:34:54;4.38;;;1.52;;
14074;SDS011;12831;52.392;13.066;2023-05-07T14:37:35;5.70;;;1.30;;
14074;SDS011;12831;52.392;13.066;2023-05-07T14:40:06;1.58;;;1.10;;
14074;SDS011;12831;52.392;13.066;2023-05-07T14:42:33;2.28;;;1.35;;
14074;SDS011;12831;52.392;13.066;2023-05-07T14:45:03;3.90;;;1.48;;
14074;SDS011;12831;52.392;13.066;2023-05-07T14:47:30;6.50;;;1.90;;
14074;SDS011;12831;52.392;13.066;2023-05-07T14:49:59;3.15;;;1.30;;
14074;SDS011;12831;52.392;13.066;2023-05-07T14:52:32;2.17;;;1.08;;
14074;SDS011;12831;52.392;13.066;2023-05-07T14:54:59;1.77;;;1.17;;
14074;SDS011;12831;52.392;13.066;2023-05-07T14:57:41;4.70;;;2.65;;
14074;SDS011;12831;52.392;13.066;2023-05-07T15:03:43;2.25;;;1.25;;
14074;SDS011;12831;52.392;13.066;2023-05-07T15:06:13;1.70;;;1.27;;
14074;SDS011;12831;52.392;13.066;2023-05-07T15:08:39;2.90;;;1.77;;
14074;SDS011;12831;52.392;13.066;2023-05-07T15:11:07;3.92;;;1.25;;
14074;SDS011;12831;52.392;13.066;2023-05-07T15:13:50;1.73;;;1.10;;
14074;SDS011;12831;52.392;13.066;2023-05-07T15:16:20;3.10;;;1.40;;
14074;SDS011;12831;52.392;13.066;2023-05-07T15:18:48;1.75;;;1.00;;
14074;SDS011;12831;52.392;13.066;2023-05-07T15:21:37;1.38;;;0.93;;
14074;SDS011;12831;52.392;13.066;2023-05-07T15:24:05;1.70;;;1.00;;